Mount Vernon, Virginia
Current Conditions -  °F | °C
As of 10:58 PM on Wednesday 22 Oct 2014 (Local Time) from KDAA Reporting Station
Few Clouds Few Clouds  
Wind Chill: 54°   Ceiling: Unl
Heat Index: 54°   Visibility: 10mi
Dew Point: 43°   Wind: 14mph
Humidity: 68%   Direction: 310°NW
Pressure: 29.95"   Gusts: 22mph
Location:  38.71°N, 77.08°W
Report Text: KDAA 230258Z AUTO 31012G19KT 10SM FEW041 12/06 A2995 RMK AO2 SLP145 T01210063 50003
Loading
Personal Weather Stations






























Interactive Weather Map New forecast layout! Learn more

10-Day Weather Forecast

Advertisements
Track Severe Weather on mobile